Terminal Aerodrome Forecast
Issued by NWS

Home | Current Version | Previous Version | Text Only | Print | Product List | Glossary On
Versions: 1 2 3 4 5 6 7 8 9 10 11 12 13 14 15 16 17 18
080
FTUS46 KSEW 261120
TAFHQM
TAF
KHQM 261120Z 2612/2712 07013KT 6SM -RA BR SCT020 OVC035
     FM261500 07015G25KT 5SM -RA BR SCT013 OVC028
     FM261800 10020G30KT 2SM RA BR SCT007 BKN013 OVC028
     FM262100 15020G30KT 4SM -RA BR SCT007 BKN013 OVC030
     FM270000 19013KT P6SM -SHRA BKN020 OVC035
     FM270600 17009KT P6SM -SHRA FEW009 BKN020 OVC035=

USA.gov is the U.S. government's official web portal to all federal, state and local government web resources and services.